Time;durP1;ratioP1;P1;durP2;ratioP2;P2;SDS_P1;SDS_P2;PMS_P1;PMS_P2;Temp;Humidity;BMP_temperature;BMP_pressure;BME280_temperature;BME280_humidity;BME280_pressure;Samples;Min_cycle;Max_cycle;Signal;HPM_P1;HPM_P2
2021/12/31 00:00:47;;;;;;;173.97;58.47;;;;;;;-4.23;100.00;100112.59;1683982;84;21833;-79
2021/12/31 00:03:16;;;;;;;223.07;75.43;;;;;;;-4.22;100.00;100107.88;1680393;85;21072;-82
2021/12/31 00:05:44;;;;;;;182.53;60.07;;;;;;;-4.20;100.00;100111.36;1686817;83;21060;-81
2021/12/31 00:08:10;;;;;;;205.87;65.10;;;;;;;-4.23;100.00;100104.87;1686391;85;21718;-80
2021/12/31 00:10:39;;;;;;;242.93;79.63;;;;;;;-4.20;100.00;100103.64;1685905;85;21061;-81
2021/12/31 00:13:07;;;;;;;171.37;60.67;;;;;;;-4.21;100.00;100096.75;1686026;85;21177;-80
2021/12/31 00:15:35;;;;;;;225.13;79.20;;;;;;;-4.20;100.00;100095.93;1685859;85;21057;-81
2021/12/31 00:18:02;;;;;;;169.90;55.70;;;;;;;-4.20;100.00;100095.06;1685935;85;21088;-79
2021/12/31 00:20:29;;;;;;;161.43;61.70;;;;;;;-4.20;100.00;100085.64;1685634;85;21137;-81
2021/12/31 00:25:28;;;;;;;134.77;47.30;;;;;;;-4.17;100.00;100101.13;1687604;85;21112;-81
2021/12/31 00:27:54;;;;;;;171.20;58.27;;;;;;;-4.15;100.00;100096.03;1687424;85;21069;-81
2021/12/31 00:30:21;;;;;;;186.80;66.60;;;;;;;-4.12;100.00;100095.66;1687466;85;21069;-79
2021/12/31 00:32:49;;;;;;;148.65;51.60;;;;;;;-4.11;100.00;100092.27;1687403;85;21603;-81
2021/12/31 00:35:16;;;;;;;158.63;56.23;;;;;;;-4.10;100.00;100097.85;1687700;85;21159;-80
2021/12/31 00:37:43;;;;;;;131.07;47.80;;;;;;;-4.09;100.00;100088.03;1687305;85;21061;-78
2021/12/31 00:40:12;;;;;;;181.82;60.80;;;;;;;-4.10;100.00;100090.14;1687665;85;21624;-79
2021/12/31 00:42:39;;;;;;;230.13;80.00;;;;;;;-4.08;100.00;100087.18;1687392;84;21088;-77
2021/12/31 00:45:09;;;;;;;137.92;49.30;;;;;;;-4.10;100.00;100082.84;1687198;83;21064;-78
2021/12/31 00:47:36;;;;;;;192.53;64.12;;;;;;;-4.08;100.00;100073.03;1687299;85;21154;-80
2021/12/31 00:50:03;;;;;;;144.97;54.37;;;;;;;-4.05;100.00;100063.23;1687319;83;21064;-79
2021/12/31 00:52:32;;;;;;;143.43;55.38;;;;;;;-4.03;100.00;100062.41;1696735;81;21104;-80
2021/12/31 00:54:59;;;;;;;221.10;77.47;;;;;;;-4.02;100.00;100051.73;1707846;84;21555;-79
2021/12/31 00:57:27;;;;;;;135.60;52.48;;;;;;;-4.02;100.00;100038.45;1707889;84;21610;-78
2021/12/31 00:59:54;;;;;;;170.72;59.60;;;;;;;-3.96;100.00;100049.27;1706529;84;21094;-77
2021/12/31 01:02:24;;;;;;;154.27;56.37;;;;;;;-3.93;100.00;100049.34;1705922;84;21029;-77
2021/12/31 01:04:50;;;;;;;147.15;49.93;;;;;;;-3.95;100.00;100051.45;1726956;81;21072;-77
2021/12/31 01:07:16;;;;;;;177.60;64.10;;;;;;;-3.99;100.00;100044.06;1732463;81;21114;-77
2021/12/31 01:09:43;;;;;;;141.97;49.20;;;;;;;-3.97;100.00;100039.83;1732828;81;21055;-77
2021/12/31 01:12:14;;;;;;;219.95;77.35;;;;;;;-3.97;100.00;100048.83;1730757;82;21036;-78
2021/12/31 01:14:56;;;;;;;208.85;71.05;;;;;;;-3.99;100.00;100050.92;1711964;82;21581;-77
2021/12/31 01:17:14;;;;;;;129.07;45.40;;;;;;;-4.00;100.00;100039.77;1677575;85;21630;-79
2021/12/31 01:19:49;;;;;;;144.77;52.65;;;;;;;-4.04;100.00;100043.98;1713726;83;21629;-78
2021/12/31 01:22:17;;;;;;;149.95;54.30;;;;;;;-4.04;100.00;100037.55;1681721;85;21074;-78
2021/12/31 01:24:44;;;;;;;131.33;47.57;;;;;;;-4.06;100.00;100040.50;1714026;83;21764;-77
2021/12/31 01:27:12;;;;;;;178.55;63.33;;;;;;;-4.07;100.00;100022.06;1681689;85;21075;-77
2021/12/31 01:29:38;;;;;;;127.03;48.63;;;;;;;-4.05;100.00;100022.96;1711176;83;21057;-78
2021/12/31 01:32:06;;;;;;;154.20;55.03;;;;;;;-4.05;100.00;100021.67;1705913;84;21066;-78
2021/12/31 01:34:33;;;;;;;201.15;70.15;;;;;;;-4.01;100.00;100019.59;1707038;84;21670;-77
2021/12/31 01:37:00;;;;;;;128.78;47.65;;;;;;;-4.03;100.00;100012.25;1707384;82;22355;-77
2021/12/31 01:39:27;;;;;;;222.25;79.22;;;;;;;-4.01;100.00;100009.72;1707828;84;21058;-79
2021/12/31 01:41:57;;;;;;;180.13;62.10;;;;;;;-3.97;100.00;100009.38;1707548;84;21073;-78
2021/12/31 01:44:23;;;;;;;219.28;77.53;;;;;;;-3.97;100.00;100004.23;1707533;82;21081;-77
2021/12/31 01:46:58;;;;;;;244.93;84.10;;;;;;;-3.93;100.00;100008.19;1707388;82;21077;-75
2021/12/31 01:49:28;;;;;;;149.40;57.33;;;;;;;-3.94;100.00;100007.72;1707480;82;21126;-77
2021/12/31 01:51:53;;;;;;;219.47;79.73;;;;;;;-3.93;100.00;99995.33;1707215;83;21598;-76
2021/12/31 01:54:21;;;;;;;214.67;73.17;;;;;;;-3.89;100.00;99998.80;1707551;84;21564;-77
2021/12/31 01:56:47;;;;;;;194.07;67.27;;;;;;;-3.89;100.00;99993.66;1707605;84;21096;-77
2021/12/31 01:59:15;;;;;;;189.32;67.08;;;;;;;-3.87;100.00;99991.98;1707697;84;21080;-77
2021/12/31 02:01:41;;;;;;;156.83;57.10;;;;;;;-3.87;100.00;99997.12;1685496;84;21662;-78
2021/12/31 02:04:08;;;;;;;181.80;66.53;;;;;;;-3.89;100.00;99991.08;1705728;82;21056;-78
2021/12/31 02:06:36;;;;;;;200.37;72.03;;;;;;;-3.86;100.00;99986.88;1703549;82;21073;-78
2021/12/31 02:09:04;;;;;;;139.03;51.42;;;;;;;-3.85;100.00;99981.30;1710840;82;21098;-78
2021/12/31 02:11:31;;;;;;;260.10;87.57;;;;;;;-3.80;100.00;99980.96;1711866;83;21043;-78
2021/12/31 02:13:58;;;;;;;176.63;61.07;;;;;;;-3.81;100.00;99972.81;1712104;83;21143;-76
2021/12/31 02:16:24;;;;;;;160.13;58.57;;;;;;;-3.82;100.00;99969.77;1704582;84;21152;-77
2021/12/31 02:18:51;;;;;;;262.63;84.83;;;;;;;-3.81;100.00;99958.66;1706145;84;21568;-82
2021/12/31 02:21:20;;;;;;;120.05;47.80;;;;;;;-3.81;100.00;99954.80;1706233;83;21049;-82
2021/12/31 02:23:55;;;;;;;221.80;74.87;;;;;;;-3.78;100.00;99958.70;1706574;84;21109;-79
2021/12/31 02:26:22;;;;;;;149.57;56.37;;;;;;;-3.87;100.00;99943.09;1706133;84;21057;-78
2021/12/31 02:28:49;;;;;;;176.72;59.77;;;;;;;-3.79;100.00;99959.56;1706006;84;21033;-80
2021/12/31 02:31:16;;;;;;;186.20;65.15;;;;;;;-3.78;100.00;99962.56;1705930;84;21084;-79
2021/12/31 02:33:43;;;;;;;138.65;56.05;;;;;;;-3.78;100.00;99974.14;1705815;83;21057;-77
2021/12/31 02:36:10;;;;;;;156.95;61.42;;;;;;;-3.80;100.00;99965.52;1705921;84;21053;-79
2021/12/31 02:38:37;;;;;;;201.47;69.67;;;;;;;-3.80;100.00;99968.09;1705844;84;21159;-78
2021/12/31 02:41:04;;;;;;;152.43;58.00;;;;;;;-3.82;100.00;99962.95;1706432;84;21512;-79
2021/12/31 02:43:32;;;;;;;234.55;81.17;;;;;;;-3.82;100.00;99960.77;1706142;83;21455;-80
2021/12/31 02:45:58;;;;;;;159.65;56.65;;;;;;;-3.83;100.00;99965.48;1706525;84;21109;-80
2021/12/31 02:48:25;;;;;;;122.70;44.27;;;;;;;-3.81;100.00;99963.80;1706298;84;21069;-78
2021/12/31 02:50:55;;;;;;;203.42;74.05;;;;;;;-3.81;100.00;99959.95;1706261;84;21155;-83
2021/12/31 02:53:41;;;;;;;118.87;46.20;;;;;;;-3.82;100.00;99955.23;1706583;83;22310;-82
2021/12/31 02:56:12;;;;;;;206.53;73.15;;;;;;;-3.81;100.00;99958.66;1706864;83;21116;-77
2021/12/31 02:58:40;;;;;;;192.90;70.42;;;;;;;-3.78;100.00;99958.70;1707738;84;21019;-79
2021/12/31 03:01:08;;;;;;;128.25;50.48;;;;;;;-3.76;100.00;99954.45;1710389;84;21069;-79
2021/12/31 03:03:35;;;;;;;302.02;108.50;;;;;;;-3.74;100.00;99954.06;1709356;84;21519;-80
2021/12/31 03:06:03;;;;;;;148.00;59.95;;;;;;;-3.74;100.00;99950.20;1675643;85;21013;-79
2021/12/31 03:08:33;;;;;;;183.52;65.62;;;;;;;-3.69;100.00;99948.58;1706090;82;21340;-80
2021/12/31 03:11:03;;;;;;;207.43;74.30;;;;;;;-3.66;100.00;99948.65;1672879;85;21091;-77
2021/12/31 03:13:29;;;;;;;131.25;51.02;;;;;;;-3.66;100.00;99947.36;1704514;84;21336;-81
2021/12/31 03:15:57;;;;;;;207.60;76.22;;;;;;;-3.65;100.00;99945.22;1704541;84;21813;-82
2021/12/31 03:18:24;;;;;;;281.52;102.22;;;;;;;-3.59;100.00;99944.45;1672461;85;21040;-79
2021/12/31 03:21:01;;;;;;;158.30;59.48;;;;;;;-3.59;100.00;99937.61;1704224;82;21107;-80
2021/12/31 03:23:28;;;;;;;220.48;80.83;;;;;;;-3.55;100.00;99944.09;1672483;85;21605;-82
2021/12/31 03:25:55;;;;;;;130.63;54.42;;;;;;;-3.56;100.00;99951.38;1704567;84;21051;-79
2021/12/31 03:28:23;;;;;;;171.77;63.50;;;;;;;-3.54;100.00;99948.38;1704400;84;21118;-77
2021/12/31 03:30:51;;;;;;;197.95;71.82;;;;;;;-3.53;100.00;99944.56;1703956;83;21534;-81
2021/12/31 03:33:18;;;;;;;134.25;52.00;;;;;;;-3.51;100.00;99945.88;1704231;84;21079;-80
2021/12/31 03:35:44;;;;;;;250.22;92.15;;;;;;;-3.52;100.00;99941.16;1704104;82;21039;-80
2021/12/31 03:38:14;;;;;;;327.45;121.87;;;;;;;-3.53;100.00;99939.41;1704361;83;21071;-81
2021/12/31 03:40:40;;;;;;;143.52;54.35;;;;;;;-3.51;100.00;99944.59;1704274;82;22304;-81
2021/12/31 03:43:08;;;;;;;262.08;90.00;;;;;;;-3.49;100.00;99933.91;1704384;83;21064;-83
2021/12/31 03:45:36;;;;;;;144.13;57.38;;;;;;;-3.50;100.00;99933.44;1704626;84;21023;-82
2021/12/31 03:48:04;;;;;;;168.30;64.95;;;;;;;-3.45;100.00;99929.23;1672407;85;21104;-77
2021/12/31 03:50:31;;;;;;;218.37;81.32;;;;;;;-3.43;100.00;99927.16;1704269;84;21123;-77
2021/12/31 03:52:57;;;;;;;169.82;64.90;;;;;;;-3.39;100.00;99926.77;1707329;83;21671;-79
2021/12/31 03:55:24;;;;;;;260.32;93.22;;;;;;;-3.35;100.00;99928.55;1711966;83;21510;-77
2021/12/31 03:57:51;;;;;;;144.85;56.58;;;;;;;-3.34;100.00;99918.69;1711919;83;21075;-77
2021/12/31 04:00:18;;;;;;;144.82;57.70;;;;;;;-3.33;100.00;99928.16;1712082;83;21533;-77
2021/12/31 04:02:45;;;;;;;238.12;84.22;;;;;;;-3.32;100.00;99923.44;1711905;82;21044;-77
2021/12/31 04:05:12;;;;;;;133.30;54.08;;;;;;;-3.30;100.00;99926.05;1712007;82;22142;-79
2021/12/31 04:07:40;;;;;;;237.20;85.60;;;;;;;-3.27;100.00;99926.94;1711701;83;21573;-77
2021/12/31 04:10:08;;;;;;;183.15;67.45;;;;;;;-3.28;100.00;99922.65;1711698;83;21138;-77
2021/12/31 04:12:36;;;;;;;203.18;73.90;;;;;;;-3.30;100.00;99916.61;1711615;83;21054;-78
2021/12/31 04:15:04;;;;;;;256.70;95.25;;;;;;;-3.26;100.00;99914.53;1712235;83;21118;-77
2021/12/31 04:17:30;;;;;;;125.92;48.90;;;;;;;-3.25;100.00;99909.81;1712036;83;21776;-75
2021/12/31 04:19:58;;;;;;;181.22;69.03;;;;;;;-3.26;100.00;99906.80;1711727;82;21076;-76
2021/12/31 04:22:26;;;;;;;178.32;66.77;;;;;;;-3.21;100.00;99909.02;1712042;83;21126;-76
2021/12/31 04:24:55;;;;;;;;;;;;;;;-3.20;100.00;99908.20;1714488;83;21066;-75
2021/12/31 04:27:22;;;;;;;237.42;85.03;;;;;;;-3.21;100.00;99905.59;1711928;83;20435;-76
2021/12/31 04:29:52;;;;;;;118.53;47.98;;;;;;;-3.22;100.00;99910.27;1712029;83;21174;-76
2021/12/31 04:32:23;;;;;;;158.42;63.42;;;;;;;-3.21;100.00;99906.88;1712324;83;21079;-76
2021/12/31 04:34:51;;;;;;;234.67;83.30;;;;;;;-3.18;100.00;99901.33;1711814;83;21134;-77
2021/12/31 04:37:18;;;;;;;122.50;47.48;;;;;;;-3.17;100.00;99904.37;1712245;83;21098;-76
2021/12/31 04:39:45;;;;;;;206.23;74.65;;;;;;;-3.16;100.00;99902.22;1712100;82;21020;-78
2021/12/31 04:42:12;;;;;;;205.22;75.60;;;;;;;-3.13;100.00;99905.69;1686237;83;21116;-79
2021/12/31 04:44:39;;;;;;;133.12;52.00;;;;;;;-3.11;100.00;99902.28;1683438;85;21148;-73
2021/12/31 04:47:06;;;;;;;185.50;70.12;;;;;;;-3.09;100.00;99884.28;1681993;83;21054;-74
2021/12/31 04:49:33;;;;;;;113.75;47.13;;;;;;;-3.08;100.00;99888.58;1682109;85;21043;-75
2021/12/31 04:51:59;;;;;;;216.80;83.72;;;;;;;-3.07;100.00;99882.60;1679459;85;21500;-68
2021/12/31 04:54:26;;;;;;;253.58;89.97;;;;;;;-3.04;100.00;99874.91;1699868;81;21160;-67
2021/12/31 04:56:55;;;;;;;125.12;51.05;;;;;;;-3.01;100.00;99885.27;1706727;84;21085;-69
2021/12/31 04:59:22;;;;;;;268.17;99.77;;;;;;;-3.02;100.00;99888.67;1707323;84;20983;-70
2021/12/31 05:01:50;;;;;;;123.87;52.08;;;;;;;-3.04;100.00;99879.63;1707953;82;21023;-68
2021/12/31 05:04:17;;;;;;;177.07;68.52;;;;;;;-3.03;100.00;99879.23;1704898;84;21670;-69
2021/12/31 05:06:43;;;;;;;308.07;113.30;;;;;;;-3.05;100.00;99874.05;1708103;82;21175;-69
2021/12/31 05:09:12;;;;;;;155.22;63.87;;;;;;;-3.03;100.00;99874.08;1708003;82;21065;-70
2021/12/31 05:11:38;;;;;;;121.00;49.73;;;;;;;-3.02;100.00;99868.06;1707770;83;21123;-70
2021/12/31 05:14:05;;;;;;;108.17;47.38;;;;;;;-2.99;100.00;99879.69;1708558;83;21068;-69
2021/12/31 05:16:35;;;;;;;108.85;46.20;;;;;;;-3.02;100.00;99870.64;1708267;83;21073;-68
2021/12/31 05:19:03;;;;;;;117.82;48.60;;;;;;;-3.05;100.00;99870.61;1707020;82;21074;-68
2021/12/31 05:21:31;;;;;;;111.25;46.68;;;;;;;-3.06;100.00;99870.16;1706975;82;21157;-70
2021/12/31 05:24:05;;;;;;;123.90;49.80;;;;;;;-3.07;100.00;99878.73;1707999;82;21148;-69
2021/12/31 05:26:31;;;;;;;123.25;49.55;;;;;;;-3.07;100.00;99885.18;1707802;82;21057;-70
2021/12/31 05:28:58;;;;;;;111.80;46.80;;;;;;;-3.09;100.00;99870.12;1707287;84;21109;-70
2021/12/31 05:31:24;;;;;;;114.08;49.05;;;;;;;-3.03;100.00;99875.37;1707324;82;21156;-69
2021/12/31 05:33:51;;;;;;;113.80;44.45;;;;;;;-3.00;100.00;99879.27;1707537;83;21082;-70
2021/12/31 05:36:17;;;;;;;110.78;47.35;;;;;;;-2.98;100.00;99875.00;1679643;84;21041;-69
2021/12/31 05:38:46;;;;;;;118.77;47.73;;;;;;;-2.99;100.00;99869.39;1703243;82;21071;-69
2021/12/31 05:41:12;;;;;;;114.17;45.03;;;;;;;-2.97;100.00;99863.83;1707329;84;21065;-70
2021/12/31 05:43:39;;;;;;;112.32;47.43;;;;;;;-2.98;100.00;99872.42;1707235;84;21143;-69
2021/12/31 05:46:05;;;;;;;117.22;49.10;;;;;;;-2.97;100.00;99874.14;1708336;82;21026;-69
2021/12/31 05:48:33;;;;;;;107.95;45.20;;;;;;;-2.97;100.00;99868.98;1641569;85;21656;-70
2021/12/31 05:50:59;;;;;;;103.30;46.15;;;;;;;-2.94;100.00;99858.74;1637695;86;21023;-70
2021/12/31 05:53:27;;;;;;;110.28;46.02;;;;;;;-2.93;100.00;99869.48;1711480;82;21117;-69
2021/12/31 05:55:53;;;;;;;103.20;42.62;;;;;;;-2.92;100.00;99875.09;1733282;82;21111;-70
2021/12/31 05:58:19;;;;;;;108.07;42.53;;;;;;;-2.91;100.00;99861.35;1732886;82;21080;-70
2021/12/31 06:00:46;;;;;;;117.57;47.17;;;;;;;-2.89;100.00;99873.84;1723105;81;21123;-69
2021/12/31 06:03:14;;;;;;;109.03;46.77;;;;;;;-2.90;100.00;99868.65;1724977;81;21825;-71
2021/12/31 06:05:42;;;;;;;115.03;47.90;;;;;;;-2.89;100.00;99866.10;1731008;81;21045;-69
2021/12/31 06:08:08;;;;;;;119.30;50.95;;;;;;;-2.88;100.00;99863.95;1725171;82;21077;-71
2021/12/31 06:10:40;;;;;;;141.18;56.08;;;;;;;-2.86;100.00;99876.44;1744026;82;21041;-70
2021/12/31 06:13:11;;;;;;;151.78;59.50;;;;;;;-2.86;100.00;99872.58;1744276;82;22138;-69
2021/12/31 06:15:37;;;;;;;133.90;53.92;;;;;;;-2.83;100.00;99870.06;1735981;82;21006;-69
2021/12/31 06:18:06;;;;;;;227.25;83.92;;;;;;;-2.80;100.00;99883.41;1733823;81;21092;-68
2021/12/31 06:20:36;;;;;;;133.00;54.73;;;;;;;-2.78;100.00;99877.42;1723214;83;21837;-70
2021/12/31 06:23:03;;;;;;;233.47;82.50;;;;;;;-2.73;100.00;99872.75;1723157;83;22149;-71
2021/12/31 06:25:30;;;;;;;131.10;55.98;;;;;;;-2.77;100.00;99879.14;1723349;83;21071;-69
2021/12/31 06:27:57;;;;;;;211.68;79.92;;;;;;;-2.71;100.00;99874.90;1723324;82;21027;-69
2021/12/31 06:30:24;;;;;;;176.05;68.78;;;;;;;-2.65;100.00;99873.70;1721427;81;21091;-69
2021/12/31 06:32:51;;;;;;;133.32;52.03;;;;;;;-2.60;100.00;99883.23;1720662;82;21141;-70
2021/12/31 06:35:18;;;;;;;143.30;58.30;;;;;;;-2.55;100.00;99878.13;1721866;82;21093;-72
2021/12/31 06:37:45;;;;;;;109.35;45.00;;;;;;;-2.56;100.00;99877.67;1720123;82;21056;-73
2021/12/31 06:40:14;;;;;;;128.05;49.48;;;;;;;-2.51;100.00;99877.73;1731436;81;21637;-75
2021/12/31 06:42:41;;;;;;;128.72;51.48;;;;;;;-2.44;100.00;99873.97;1724158;81;21076;-70
2021/12/31 06:45:08;;;;;;;115.70;45.40;;;;;;;-2.39;100.00;99879.18;1723060;82;21165;-75
2021/12/31 06:47:35;;;;;;;118.35;47.90;;;;;;;-2.30;100.00;99879.68;1729379;81;21057;-72
2021/12/31 06:50:03;;;;;;;123.00;48.20;;;;;;;-2.32;100.00;99879.25;1742637;81;21607;-73
2021/12/31 06:52:39;;;;;;;113.95;45.85;;;;;;;-2.37;100.00;99883.50;1753856;81;21579;-72
2021/12/31 06:55:07;;;;;;;114.00;47.03;;;;;;;-2.43;100.00;99886.00;1721075;81;21193;-71
2021/12/31 06:57:35;;;;;;;135.15;52.33;;;;;;;-2.46;100.00;99885.98;1687014;82;21127;-72
2021/12/31 07:00:07;;;;;;;168.37;64.27;;;;;;;-2.44;100.00;99895.89;1709221;82;21717;-74
2021/12/31 07:02:35;;;;;;;197.17;73.02;;;;;;;-2.46;100.00;99897.58;1725771;80;21093;-74
2021/12/31 07:05:02;;;;;;;170.82;68.47;;;;;;;-2.48;100.00;99891.54;1709473;82;21626;-71
2021/12/31 07:07:29;;;;;;;131.12;54.60;;;;;;;-2.44;100.00;99898.47;1703807;83;21561;-73
2021/12/31 07:09:56;;;;;;;131.97;51.88;;;;;;;-2.42;100.00;99896.75;1703940;83;21502;-72
2021/12/31 07:12:22;;;;;;;115.08;45.63;;;;;;;-2.46;100.00;99894.11;1703145;83;21539;-73
2021/12/31 07:14:51;;;;;;;101.67;41.85;;;;;;;-2.47;100.00;99899.70;1671290;85;21138;-72
2021/12/31 07:17:17;;;;;;;109.25;45.52;;;;;;;-2.45;100.00;99890.70;1677100;84;21516;-74
2021/12/31 07:19:44;;;;;;;103.90;40.48;;;;;;;-2.43;100.00;99887.30;1725740;82;21030;-72
2021/12/31 07:22:10;;;;;;;117.45;45.05;;;;;;;-2.42;100.00;99886.43;1707545;83;21163;-72
2021/12/31 07:24:39;;;;;;;107.90;42.48;;;;;;;-2.41;100.00;99884.74;1707515;83;21077;-72
2021/12/31 07:27:06;;;;;;;105.00;42.35;;;;;;;-2.39;100.00;99876.60;1706601;84;21081;-73
2021/12/31 07:29:32;;;;;;;112.00;41.92;;;;;;;-2.40;100.00;99878.29;1707751;84;21081;-72
2021/12/31 07:31:59;;;;;;;108.60;42.08;;;;;;;-2.38;100.00;99878.32;1707534;82;21120;-72
2021/12/31 07:34:26;;;;;;;115.72;45.98;;;;;;;-2.37;100.00;99884.80;1707570;82;21160;-72
2021/12/31 07:36:53;;;;;;;111.10;45.05;;;;;;;-2.37;100.00;99887.37;1706701;82;21610;-72
2021/12/31 07:39:24;;;;;;;121.37;46.05;;;;;;;-2.37;100.00;99883.50;1707245;82;21058;-72
2021/12/31 07:41:49;;;;;;;117.20;47.48;;;;;;;-2.34;100.00;99882.23;1707027;82;21089;-73
2021/12/31 07:44:17;;;;;;;116.17;43.78;;;;;;;-2.30;100.00;99880.97;1707579;82;21092;-73
2021/12/31 07:46:46;;;;;;;126.45;47.85;;;;;;;-2.27;100.00;99882.31;1707550;82;21616;-73
2021/12/31 07:49:13;;;;;;;123.00;49.63;;;;;;;-2.25;100.00;99890.94;1699595;82;21446;-73
2021/12/31 07:51:39;;;;;;;128.42;48.68;;;;;;;-2.25;100.00;99889.66;1708775;82;21566;-73
2021/12/31 07:54:06;;;;;;;126.27;47.08;;;;;;;-2.24;100.00;99881.05;1707660;82;21139;-71
2021/12/31 07:56:34;;;;;;;122.67;50.15;;;;;;;-2.23;100.00;99878.89;1707310;82;21616;-71
2021/12/31 07:59:01;;;;;;;132.47;48.85;;;;;;;-2.19;100.00;99876.80;1707366;82;21548;-73
2021/12/31 08:01:28;;;;;;;128.12;49.75;;;;;;;-2.16;100.00;99879.43;1707365;82;21116;-73
2021/12/31 08:03:54;;;;;;;126.30;48.78;;;;;;;-2.14;100.00;99878.59;1708633;82;21061;-73
2021/12/31 08:06:22;;;;;;;127.32;49.35;;;;;;;-2.10;100.00;99873.02;1707611;82;21033;-73
2021/12/31 08:08:48;;;;;;;135.12;48.68;;;;;;;-2.07;100.00;99864.05;1707464;82;21069;-72
2021/12/31 08:11:15;;;;;;;136.22;52.70;;;;;;;-2.07;100.00;99858.88;1707159;82;21151;-74
2021/12/31 08:13:41;;;;;;;135.37;50.25;;;;;;;-2.03;100.00;99858.47;1707438;82;21041;-71
2021/12/31 08:16:09;;;;;;;143.85;54.00;;;;;;;-2.02;100.00;99862.36;1706814;82;21107;-73
2021/12/31 08:18:36;;;;;;;149.00;57.78;;;;;;;-1.97;100.00;99865.84;1707004;82;21092;-73
2021/12/31 08:21:04;;;;;;;142.25;54.55;;;;;;;-1.95;100.00;99860.70;1707247;82;21397;-74
2021/12/31 08:23:31;;;;;;;154.23;56.00;;;;;;;-1.91;100.00;99865.91;1662372;84;22288;-73
2021/12/31 08:25:59;;;;;;;159.97;56.08;;;;;;;-1.85;100.00;99866.81;1707395;84;21084;-72
2021/12/31 08:28:26;;;;;;;159.03;56.10;;;;;;;-1.83;100.00;99866.41;1707317;84;21093;-73
2021/12/31 08:30:53;;;;;;;150.07;54.18;;;;;;;-1.78;100.00;99868.59;1707553;82;21642;-73
2021/12/31 08:33:19;;;;;;;148.68;51.88;;;;;;;-1.76;100.00;99859.15;1707483;84;21077;-72
2021/12/31 08:35:46;;;;;;;142.13;52.90;;;;;;;-1.74;100.00;99858.30;1707837;82;21219;-73
2021/12/31 08:38:13;;;;;;;152.02;53.70;;;;;;;-1.69;100.00;99863.51;1707423;84;21650;-75
2021/12/31 08:40:39;;;;;;;144.75;53.75;;;;;;;-1.66;100.00;99866.10;1707520;84;21602;-72
2021/12/31 08:43:06;;;;;;;145.47;53.17;;;;;;;-1.63;100.00;99866.16;1707336;82;21513;-72
2021/12/31 08:45:32;;;;;;;136.47;52.10;;;;;;;-1.61;100.00;99859.28;1707617;84;21092;-73
2021/12/31 08:47:59;;;;;;;142.98;50.85;;;;;;;-1.57;100.00;99853.27;1707102;82;21119;-73
2021/12/31 08:50:25;;;;;;;148.65;53.80;;;;;;;-1.55;100.00;99854.14;1706836;84;21108;-74
2021/12/31 08:52:53;;;;;;;134.65;50.58;;;;;;;-1.53;100.00;99849.86;1706072;84;21093;-71
2021/12/31 08:55:20;;;;;;;145.43;51.42;;;;;;;-1.53;100.00;99856.75;1707151;82;21077;-73
2021/12/31 08:57:47;;;;;;;144.05;52.38;;;;;;;-1.49;100.00;99854.63;1706822;82;21111;-74
2021/12/31 09:00:15;;;;;;;141.28;50.88;;;;;;;-1.50;100.00;99849.88;1712055;82;22165;-73
2021/12/31 09:02:45;;;;;;;142.00;52.05;;;;;;;-1.47;100.00;99854.22;1701925;82;21557;-73
2021/12/31 09:05:11;;;;;;;157.18;52.08;;;;;;;-1.49;100.00;99852.05;1705947;82;21072;-73
2021/12/31 09:07:38;;;;;;;136.43;52.25;;;;;;;-1.49;100.00;99854.20;1708588;82;21046;-74
2021/12/31 09:10:07;;;;;;;143.52;51.58;;;;;;;-1.44;100.00;99858.55;1707372;82;21072;-72
2021/12/31 09:12:37;;;;;;;137.80;48.80;;;;;;;-1.42;100.00;99851.23;1703782;82;21858;-73
2021/12/31 09:15:05;;;;;;;161.43;55.58;;;;;;;-1.39;100.00;99855.13;1707393;82;21402;-74
2021/12/31 09:17:33;;;;;;;147.02;50.65;;;;;;;-1.34;100.00;99857.30;1703348;84;21069;-72
2021/12/31 09:20:00;;;;;;;139.03;49.08;;;;;;;-1.30;100.00;99849.16;1712128;82;21119;-73
2021/12/31 09:22:28;;;;;;;142.85;50.83;;;;;;;-1.28;100.00;99842.29;1706050;82;21073;-74
2021/12/31 09:24:55;;;;;;;151.07;51.35;;;;;;;-1.27;100.00;99842.31;1705676;83;21938;-73
2021/12/31 09:27:22;;;;;;;154.80;54.33;;;;;;;-1.26;100.00;99844.45;1705302;84;21074;-73
2021/12/31 09:29:48;;;;;;;152.80;55.67;;;;;;;-1.23;100.00;99843.61;1705713;82;21140;-74
2021/12/31 09:32:14;;;;;;;153.15;54.00;;;;;;;-1.21;100.00;99838.88;1675714;83;21079;-73
2021/12/31 09:34:44;;;;;;;153.27;52.93;;;;;;;-1.19;100.00;99832.01;1706404;84;21073;-74
2021/12/31 09:37:14;;;;;;;147.13;49.90;;;;;;;-1.14;100.00;99835.91;1705391;83;21097;-74
2021/12/31 09:39:42;;;;;;;160.05;52.27;;;;;;;-1.10;100.00;99837.66;1707134;82;21101;-73
2021/12/31 09:42:09;;;;;;;131.80;47.23;;;;;;;-1.05;100.00;99834.67;1706881;82;21599;-73
2021/12/31 09:44:36;;;;;;;136.55;49.67;;;;;;;-0.99;100.00;99832.53;1707224;84;21598;-73
2021/12/31 09:47:10;;;;;;;152.78;52.20;;;;;;;-0.95;100.00;99832.98;1706919;84;21132;-73
2021/12/31 09:49:35;;;;;;;150.25;50.95;;;;;;;-0.92;100.00;99826.53;1706428;84;21116;-73
2021/12/31 09:52:01;;;;;;;135.60;49.90;;;;;;;-0.91;100.00;99833.01;1707474;84;21081;-74
2021/12/31 09:54:28;;;;;;;144.47;48.78;;;;;;;-0.88;100.00;99824.41;1706787;82;21086;-73
2021/12/31 09:56:56;;;;;;;149.02;53.05;;;;;;;-0.85;100.00;99814.95;1699342;82;21045;-73
2021/12/31 09:59:24;;;;;;;147.98;53.55;;;;;;;-0.78;100.00;99818.43;1695456;83;21122;-73
2021/12/31 10:01:52;;;;;;;139.62;51.95;;;;;;;-0.76;100.00;99815.42;1708248;82;21770;-73
2021/12/31 10:04:20;;;;;;;164.55;57.33;;;;;;;-0.73;100.00;99818.02;1700748;82;21049;-72
2021/12/31 10:07:12;;;;;;;173.30;60.50;;;;;;;-0.71;100.00;99817.59;1708370;83;22023;-73
2021/12/31 10:09:40;;;;;;;184.28;63.52;;;;;;;-0.72;100.00;99805.94;1691274;82;21060;-73
2021/12/31 10:12:08;;;;;;;184.90;66.33;;;;;;;-0.68;100.00;99811.13;1693753;82;21064;-73
2021/12/31 10:14:38;;;;;;;175.75;59.93;;;;;;;-0.65;100.00;99804.66;1699458;82;21213;-73
2021/12/31 10:19:19;;;;;;;154.07;54.73;;;;;;;-0.56;100.00;99797.80;1804893;79;22908;-69
2021/12/31 10:21:54;;;;;;;165.88;53.40;;;;;;;-0.58;100.00;99802.10;1777041;80;21291;-71
2021/12/31 10:24:35;;;;;;;159.10;56.18;;;;;;;-0.52;100.00;99794.38;1755653;81;21818;-70
2021/12/31 10:27:17;;;;;;;146.40;54.15;;;;;;;-0.44;100.00;99784.88;1761680;81;21551;-71
2021/12/31 10:30:05;;;;;;;160.00;57.33;;;;;;;-0.40;100.00;99784.03;1771328;81;21076;-71
2021/12/31 10:32:40;;;;;;;158.90;57.48;;;;;;;-0.32;100.00;99780.16;1771156;81;22036;-72
2021/12/31 10:35:15;;;;;;;161.43;57.43;;;;;;;-0.24;100.00;99778.02;1770890;81;21049;-72
2021/12/31 10:37:44;;;;;;;149.07;52.95;;;;;;;-0.14;100.00;99785.79;1770597;80;21113;-72
2021/12/31 10:40:11;;;;;;;144.45;52.55;;;;;;;-0.12;100.00;99784.08;1770825;81;22003;-71
2021/12/31 10:42:41;;;;;;;151.95;52.55;;;;;;;-0.09;100.00;99776.30;1765964;80;20972;-71
2021/12/31 10:45:09;;;;;;;144.37;48.23;;;;;;;-0.09;100.00;99782.36;1767087;81;22289;-71
2021/12/31 10:47:49;;;;;;;163.65;56.08;;;;;;;-0.13;100.00;99772.01;1758948;80;21025;-71
2021/12/31 10:50:15;;;;;;;148.35;53.78;;;;;;;-0.16;100.00;99769.39;1770111;80;21360;-71
2021/12/31 10:53:00;;;;;;;147.22;50.90;;;;;;;-0.21;100.00;99761.62;1771210;80;21588;-71
2021/12/31 10:55:29;;;;;;;152.30;53.95;;;;;;;-0.19;100.00;99771.99;1765640;80;21572;-71
2021/12/31 10:58:04;;;;;;;155.43;52.05;;;;;;;-0.19;100.00;99769.41;1771060;81;21045;-72
2021/12/31 11:00:34;;;;;;;136.68;50.85;;;;;;;-0.19;100.00;99768.11;1771296;81;21042;-69
2021/12/31 11:03:02;;;;;;;147.72;53.02;;;;;;;-0.18;100.00;99768.53;1764612;80;21133;-71
2021/12/31 11:05:29;;;;;;;159.57;56.13;;;;;;;-0.15;100.00;99773.73;1765900;80;21048;-71
2021/12/31 11:08:00;;;;;;;144.45;50.83;;;;;;;-0.15;100.00;99772.44;1760396;81;21502;-71